createdAt,value
2023-01-15T00:09:29.604Z,12.90
2023-01-15T00:19:33.750Z,12.80
2023-01-15T00:29:38.878Z,13.00
2023-01-15T00:39:42.916Z,12.90
2023-01-15T00:49:48.045Z,13.00
2023-01-15T00:59:51.929Z,13.10
2023-01-15T01:09:57.140Z,13.10
2023-01-15T01:20:01.036Z,13.20
2023-01-15T01:30:07.239Z,13.10
2023-01-15T01:40:12.143Z,13.20
2023-01-15T01:50:17.360Z,13.20
2023-01-15T02:00:22.803Z,13.30
2023-01-15T02:10:28.335Z,13.40
2023-01-15T02:20:37.959Z,13.30
2023-01-15T02:30:46.150Z,13.40
2023-01-15T02:40:52.335Z,13.20
2023-01-15T02:51:03.004Z,13.00
2023-01-15T03:01:12.960Z,12.90
2023-01-15T03:11:20.831Z,13.00
2023-01-15T03:21:30.259Z,12.90
2023-01-15T03:31:36.800Z,12.90
2023-01-15T03:41:55.590Z,13.00
2023-01-15T03:52:07.687Z,13.10
2023-01-15T04:02:13.898Z,13.40
2023-01-15T04:12:19.098Z,13.70
2023-01-15T04:22:22.785Z,13.30
2023-01-15T04:32:28.216Z,13.30
2023-01-15T04:42:49.116Z,13.10
2023-01-15T04:52:54.225Z,13.10
2023-01-15T05:02:57.904Z,13.70
2023-01-15T05:13:03.147Z,13.40
2023-01-15T05:23:06.871Z,13.40
2023-01-15T05:33:12.154Z,13.40
2023-01-15T05:43:15.802Z,13.40
2023-01-15T05:53:20.869Z,13.30
2023-01-15T06:03:25.094Z,12.90
2023-01-15T06:13:30.322Z,13.00
2023-01-15T06:23:36.823Z,13.00
2023-01-15T06:33:42.414Z,12.80
2023-01-15T06:44:03.781Z,12.70
2023-01-15T06:54:08.821Z,12.90
2023-01-15T07:04:12.525Z,12.40
2023-01-15T07:14:18.184Z,12.30
2023-01-15T07:24:21.977Z,12.30
2023-01-15T07:34:27.661Z,12.40
2023-01-15T07:44:48.694Z,11.70
2023-01-15T07:54:53.749Z,12.00
2023-01-15T08:04:57.416Z,13.30
2023-01-15T08:15:14.873Z,14.00
2023-01-15T08:25:20.766Z,14.30
2023-01-15T08:35:26.430Z,14.10
2023-01-15T08:45:30.310Z,14.10
2023-01-15T08:55:35.573Z,14.10
2023-01-15T09:05:39.795Z,14.20
2023-01-15T09:15:44.893Z,14.40
2023-01-15T09:25:53.981Z,14.40
2023-01-15T09:35:59.320Z,14.50
2023-01-15T09:46:10.034Z,14.40
2023-01-15T09:56:22.390Z,14.10
2023-01-15T10:06:28.952Z,14.10
2023-01-15T10:16:35.229Z,14.20
2023-01-15T10:26:43.277Z,14.90
2023-01-15T10:36:54.055Z,15.50
2023-01-15T10:47:01.751Z,16.50
2023-01-15T10:57:14.470Z,17.60
2023-01-15T11:07:19.605Z,18.10
2023-01-15T11:17:43.531Z,17.60
2023-01-15T11:27:51.731Z,18.60
2023-01-15T11:38:06.315Z,18.30
2023-01-15T11:48:35.194Z,18.10
2023-01-15T11:58:46.010Z,17.40
2023-01-15T12:08:53.025Z,17.50
2023-01-15T12:19:12.247Z,19.00
2023-01-15T12:29:22.933Z,19.30
2023-01-15T12:39:33.607Z,19.80
2023-01-15T12:49:45.160Z,20.00
2023-01-15T12:59:56.035Z,19.60
2023-01-15T13:10:08.031Z,20.00
2023-01-15T13:20:27.029Z,19.70
2023-01-15T13:30:54.267Z,20.30
2023-01-15T13:40:59.746Z,19.10
2023-01-15T13:51:06.214Z,18.80
2023-01-15T14:01:25.609Z,17.80
2023-01-15T14:11:37.285Z,18.70
2023-01-15T14:21:53.346Z,18.90
2023-01-15T14:32:08.356Z,17.60
2023-01-15T14:42:35.711Z,17.20
2023-01-15T14:52:39.695Z,16.70
2023-01-15T15:02:50.538Z,16.30
2023-01-15T15:13:03.146Z,16.00
2023-01-15T15:23:16.522Z,15.70
2023-01-15T15:33:22.481Z,15.80
2023-01-15T15:43:50.146Z,15.50
2023-01-15T15:54:04.995Z,15.10
2023-01-15T16:04:18.992Z,14.70
2023-01-15T16:14:24.024Z,14.20
2023-01-15T16:24:30.812Z,13.70
2023-01-15T16:34:36.229Z,13.60
2023-01-15T16:44:44.485Z,13.80
2023-01-15T16:54:48.833Z,13.80
2023-01-15T17:04:54.538Z,13.90
2023-01-15T17:15:16.536Z,13.60
2023-01-15T17:25:27.604Z,13.30
2023-01-15T17:35:32.888Z,13.10
2023-01-15T17:45:38.202Z,13.10
2023-01-15T17:55:59.251Z,13.00
2023-01-15T18:06:05.194Z,12.90
2023-01-15T18:16:09.385Z,12.70
2023-01-15T18:26:15.169Z,12.60
2023-01-15T18:36:19.038Z,12.20
2023-01-15T18:46:41.938Z,12.40
2023-01-15T18:56:48.313Z,12.00
2023-01-15T19:06:53.953Z,11.90
2023-01-15T19:17:17.228Z,11.80
2023-01-15T19:27:22.871Z,11.80
2023-01-15T19:37:27.107Z,11.60
2023-01-15T19:47:53.806Z,11.00
2023-01-15T19:57:59.495Z,11.10
2023-01-15T20:08:05.072Z,9.70
2023-01-15T20:18:08.787Z,9.60
2023-01-15T20:28:14.623Z,9.30
2023-01-15T20:38:19.189Z,9.30
2023-01-15T20:48:41.965Z,9.70
2023-01-15T20:58:45.801Z,10.30
2023-01-15T21:08:50.951Z,10.60
2023-01-15T21:18:54.702Z,10.50
2023-01-15T21:28:59.992Z,10.40
2023-01-15T21:39:04.185Z,11.30
2023-01-15T21:49:09.797Z,11.70
2023-01-15T21:59:14.165Z,11.40
2023-01-15T22:09:20.017Z,11.30
2023-01-15T22:19:25.305Z,11.40
2023-01-15T22:29:32.329Z,11.20
2023-01-15T22:39:36.376Z,10.80
2023-01-15T22:49:41.649Z,10.70
2023-01-15T22:59:45.493Z,10.80
2023-01-15T23:09:50.659Z,9.60
2023-01-15T23:19:54.471Z,9.40
2023-01-15T23:29:59.512Z,9.10
2023-01-15T23:40:03.494Z,9.10
2023-01-15T23:50:09.381Z,9.10
